Flight Track Log - Related Links

Times and Time Zones

All times are in EDT time to prevent confusion due to time zone crossing. See the SWA693 flight status page for this flight to view local times or setup timezone preferences in your user account.

Time Position Orientation Groundspeed Altitude Reporting Facility
EDT Latitude Longitude Course Direction KTS MPH feet Rate Location/Type
Sat 08:23:04 PM 33.4333 -112.0333 270° West 169 194 1,900  Level Phoenix TRACON
Sat 08:24:41 PM 33.4333 -112.1500 270° West 220 253 5,700 2,336 Climbing Phoenix TRACON
Sat 08:25:15 PM 33.4517 -112.1706 317° Northwest 241 277 7,000 2,526 Climbing Albuquerque Center
Sat 08:26:16 PM 33.5225 -112.1558 10° North 266 306 9,700 2,508 Climbing Albuquerque Center
Sat 08:27:17 PM 33.5953 -112.1067 29° Northeast 317 365 12,100 2,439 Climbing Albuquerque Center
Sat 08:28:19 PM 33.6086 -111.9903 82° East 356 410 14,700 3,171 Climbing Albuquerque Center
Sat 08:29:20 PM 33.6253 -111.8414 82° East 378 435 18,600 3,000 Climbing Albuquerque Center
Sat 08:30:21 PM 33.6408 -111.7097 82° East 401 461 20,800 1,659 Climbing Albuquerque Center
Sat 08:31:23 PM 33.6617 -111.5719 80° East 426 490 22,000 1,659 Climbing Albuquerque Center
Sat 08:32:24 PM 33.7239 -111.4531 58° Northeast 428 493 24,200 2,115 Climbing Albuquerque Center
Sat 08:33:25 PM 33.7897 -111.3292 57° Northeast 442 509 26,300 1,854 Climbing Albuquerque Center
Sat 08:34:27 PM 33.8600 -111.2006 57° Northeast 460 529 28,000 1,854 Climbing Albuquerque Center
Sat 08:35:28 PM 33.9458 -111.0411 57° Northeast 476 548 30,100 1,770 Climbing Albuquerque Center
Sat 08:36:29 PM 34.0194 -110.9042 57° Northeast 485 558 31,600 1,770 Climbing Albuquerque Center
Sat 08:37:30 PM 34.0942 -110.7664 57° Northeast 490 564 33,700 1,805 Climbing Albuquerque Center
Sat 08:38:32 PM 34.1678 -110.6286 57° Northeast 486 559 35,300 1,366 Climbing Albuquerque Center
Sat 08:39:33 PM 34.2403 -110.4925 57° Northeast 485 558 36,500 1,180 Climbing Albuquerque Center
Sat 08:40:34 PM 34.3153 -110.3508 57° Northeast 490 564 37,700 1,180 Climbing Albuquerque Center
Sat 08:41:35 PM 34.3964 -110.1967 57° Northeast 488 562 38,900 639 Climbing Albuquerque Center
Sat 08:42:36 PM 34.4669 -110.0664 57° Northeast 486 559 39,000 49 Climbing Albuquerque Center
Sat 08:43:38 PM 34.5367 -109.9339 57° Northeast 486 559 39,000  Level Albuquerque Center
Sat 08:44:39 PM 34.6178 -109.7783 58° Northeast 489 563 39,000  Level Albuquerque Center
Sat 08:45:40 PM 34.6872 -109.6444 58° Northeast 489 563 39,000  Level Albuquerque Center
Sat 08:46:41 PM 34.7686 -109.4900 57° Northeast 487 560 39,000  Level Albuquerque Center
Sat 08:47:42 PM 34.8358 -109.3558 59° Northeast 486 559 39,000  Level Albuquerque Center
Sat 08:48:44 PM 34.9061 -109.2236 57° Northeast 486 559 39,000  Level Albuquerque Center
Sat 08:49:45 PM 34.9847 -109.0683 58° Northeast 484 557 39,000  Level Albuquerque Center
Sat 08:50:46 PM 35.0511 -108.9358 59° Northeast 481 554 39,000  Level Albuquerque Center
Sat 08:51:47 PM 35.1308 -108.7836 57° Northeast 479 551 39,000  Level Albuquerque Center
Sat 08:52:48 PM 35.1969 -108.6517 58° Northeast 477 549 39,000  Level Albuquerque Center
Sat 08:53:49 PM 35.2647 -108.5194 58° Northeast 480 552 39,000  Level Albuquerque Center
Sat 08:54:50 PM 35.3419 -108.3653 58° Northeast 479 551 39,000  Level Albuquerque Center
Sat 08:55:52 PM 35.4094 -108.2319 58° Northeast 481 554 39,000  Level Albuquerque Center
Sat 08:56:53 PM 35.4864 -108.0758 59° Northeast 481 554 39,000  Level Albuquerque Center
Sat 08:57:54 PM 35.5531 -107.9411 59° Northeast 483 556 39,000  Level Albuquerque Center
Sat 08:58:55 PM 35.6192 -107.8067 59° Northeast 482 555 39,000  Level Albuquerque Center
Sat 08:59:57 PM 35.6956 -107.6506 59° Northeast 480 552 39,000  Level Albuquerque Center
Sat 09:00:58 PM 35.7625 -107.5164 58° Northeast 481 554 39,000  Level Albuquerque Center
Sat 09:01:59 PM 35.8392 -107.3581 59° Northeast 483 556 39,000  Level Albuquerque Center
Sat 09:03:00 PM 35.9053 -107.2231 59° Northeast 482 555 39,000  Level Albuquerque Center
Sat 09:04:01 PM 35.9742 -107.0819 59° Northeast 482 555 39,000  Level Albuquerque Center
Sat 09:05:02 PM 36.0439 -106.9397 59° Northeast 482 555 39,000  Level Albuquerque Center
Sat 09:06:03 PM 36.1122 -106.7953 60° Northeast 484 557 39,000  Level Albuquerque Center
Sat 09:07:04 PM 36.1817 -106.6519 59° Northeast 485 558 39,000  Level Albuquerque Center
Sat 09:08:05 PM 36.2575 -106.4956 59° Northeast 484 557 39,000  Level Albuquerque Center
Sat 09:09:06 PM 36.3225 -106.3578 60° Northeast 485 558 39,000  Level Albuquerque Center
Sat 09:10:07 PM 36.3986 -106.1953 60° Northeast 487 560 39,000  Level Albuquerque Center
Sat 09:11:08 PM 36.4658 -106.0547 59° Northeast 491 565 39,000  Level Albuquerque Center
Sat 09:12:09 PM 36.5317 -105.9136 60° Northeast 492 566 39,000  Level Albuquerque Center
Sat 09:13:10 PM 36.5942 -105.7764 60° Northeast 493 567 39,000  Level Albuquerque Center
Sat 09:13:52 PM 36.6533 -105.6497 60° Northeast 489 563 39,000  Level Denver Center
Sat 09:14:53 PM 36.7175 -105.5100 60° Northeast 485 558 39,000  Level Denver Center
Sat 09:16:06 PM 36.7803 -105.3714 60° Northeast 479 551 39,000  Level Denver Center
Sat 09:17:08 PM 36.8661 -105.1886 60° Northeast 480 552 39,000  Level Denver Center
Sat 09:18:09 PM 36.9275 -105.0531 60° Northeast 478 550 39,000  Level Denver Center
Sat 09:19:11 PM 36.9939 -104.9081 60° Northeast 479 551 39,000  Level Denver Center
Sat 09:20:12 PM 37.0636 -104.7475 61° Northeast 481 554 39,000  Level Denver Center
Sat 09:21:13 PM 37.1367 -104.5839 61° Northeast 483 556 39,000  Level Denver Center
Sat 09:22:14 PM 37.1992 -104.4444 61° Northeast 480 552 39,000  Level Denver Center
Sat 09:23:16 PM 37.2725 -104.2789 61° Northeast 486 559 39,000  Level Denver Center
Sat 09:24:17 PM 37.3356 -104.1375 61° Northeast 488 562 39,000  Level Denver Center
Sat 09:25:18 PM 37.3978 -103.9969 61° Northeast 489 563 39,000  Level Denver Center
Sat 09:26:19 PM 37.4689 -103.8353 61° Northeast 485 558 39,000  Level Denver Center
Sat 09:27:21 PM 37.5306 -103.6939 61° Northeast 486 559 39,000  Level Denver Center
Sat 09:28:22 PM 37.6022 -103.5286 61° Northeast 484 557 39,000  Level Denver Center
Sat 09:29:23 PM 37.6639 -103.3878 61° Northeast 481 554 39,000  Level Denver Center
Sat 09:30:37 PM 37.7356 -103.2236 61° Northeast 479 551 39,000  Level Denver Center
Sat 09:31:38 PM 37.8058 -103.0583 62° Northeast 479 551 39,000  Level Denver Center
Sat 09:32:40 PM 37.8761 -102.8931 62° Northeast 479 551 39,000  Level Denver Center
Sat 09:33:41 PM 37.9356 -102.7517 62° Northeast 477 549 39,000  Level Denver Center
Sat 09:34:42 PM 38.0050 -102.5886 62° Northeast 472 543 39,000  Level Denver Center
Sat 09:35:56 PM 38.0639 -102.4467 62° Northeast 477 549 39,000  Level Denver Center
Sat 09:36:57 PM 38.1428 -102.2589 62° Northeast 472 543 39,000  Level Denver Center
Sat 09:37:59 PM 38.2017 -102.1169 62° Northeast 472 543 39,000  Level Denver Center
Sat 09:39:01 PM 38.2617 -101.9753 62° Northeast 473 544 39,000  Level Denver Center
Sat 09:40:01 PM 38.3289 -101.8086 63° Northeast 474 545 39,000  Level Denver Center
Sat 09:41:03 PM 38.3867 -101.6672 62° Northeast 471 542 39,000  Level Denver Center
Sat 09:42:04 PM 38.4553 -101.5019 62° Northeast 470 541 39,000  Level Denver Center
Sat 09:43:05 PM 38.5131 -101.3583 63° Northeast 473 544 39,000  Level Denver Center
Sat 09:44:06 PM 38.5700 -101.2161 63° Northeast 469 540 39,000  Level Denver Center
Sat 09:45:08 PM 38.6369 -101.0533 62° Northeast 465 535 39,000  Level Denver Center
Sat 09:46:09 PM 38.6928 -100.9128 63° Northeast 461 531 39,000  Level Denver Center
Sat 09:47:10 PM 38.7489 -100.7711 63° Northeast 464 534 39,000  Level Denver Center
Sat 09:48:12 PM 38.8144 -100.6058 63° Northeast 464 534 39,000  Level Denver Center
Sat 09:49:13 PM 38.8708 -100.4642 63° Northeast 466 536 39,000  Level Denver Center
Sat 09:50:14 PM 38.9350 -100.2989 63° Northeast 463 533 39,000  Level Denver Center
Sat 09:51:27 PM 38.9936 -100.1503 63° Northeast 468 539 39,000  Level Denver Center
Sat 09:52:29 PM 39.0664 -99.9636 63° Northeast 471 542 39,000  Level Denver Center
Sat 09:53:30 PM 39.1208 -99.8206 64° Northeast 466 536 39,000  Level Denver Center
Sat 09:54:31 PM 39.1756 -99.6814 63° Northeast 457 526 39,000  Level Denver Center
Sat 09:55:32 PM 39.2306 -99.5358 64° Northeast 459 528 39,000  Level Denver Center
Sat 09:56:33 PM 39.2939 -99.3697 64° Northeast 463 533 39,000  Level Denver Center
Sat 09:57:34 PM 39.3475 -99.2289 64° Northeast 460 529 39,000  Level Denver Center
Sat 09:58:36 PM 39.4089 -99.0664 64° Northeast 452 520 39,000  Level Denver Center
Sat 09:59:37 PM 39.4653 -98.9158 64° Northeast 450 518 39,000  Level Denver Center
Sat 10:00:38 PM 39.5197 -98.7678 64° Northeast 454 522 39,000  Level Denver Center
Sat 10:01:39 PM 39.5747 -98.6228 64° Northeast 451 519 39,000  Level Denver Center
Sat 10:02:40 PM 39.6281 -98.4764 65° Northeast 451 519 39,000  Level Denver Center
Sat 10:03:11 PM 39.6506 -98.4178 63° Northeast 452 520 39,000  Level Minneapolis Center
Sat 10:04:12 PM 39.7033 -98.2714 65° Northeast 450 518 39,000  Level Minneapolis Center
Sat 10:05:13 PM 39.7681 -98.0972 64° Northeast 448 516 39,000  Level Minneapolis Center
Sat 10:06:13 PM 39.8192 -97.9519 65° Northeast 445 512 39,000  Level Minneapolis Center
Sat 10:07:14 PM 39.8722 -97.8072 64° Northeast 444 511 39,000  Level Minneapolis Center
Sat 10:08:15 PM 39.9242 -97.6628 65° Northeast 443 510 39,000  Level Minneapolis Center
Sat 10:09:15 PM 39.9767 -97.5164 65° Northeast 445 512 39,000  Level Minneapolis Center
Sat 10:10:16 PM 40.0275 -97.3700 66° East 445 512 39,000  Level Minneapolis Center
Sat 10:11:17 PM 40.0781 -97.2283 65° Northeast 444 511 39,000  Level Minneapolis Center
Sat 10:12:18 PM 40.1297 -97.0803 65° Northeast 446 513 39,000  Level Minneapolis Center
Sat 10:13:18 PM 40.1814 -96.9336 65° Northeast 447 514 39,000  Level Minneapolis Center
Sat 10:14:19 PM 40.2328 -96.7878 65° Northeast 445 512 39,000  Level Minneapolis Center
Sat 10:15:20 PM 40.2836 -96.6392 66° East 447 514 39,000  Level Minneapolis Center
Sat 10:16:20 PM 40.3344 -96.4953 65° Northeast 440 506 39,000  Level Minneapolis Center
Sat 10:17:21 PM 40.3825 -96.3531 66° East 432 497 39,000  Level Minneapolis Center
Sat 10:18:22 PM 40.4297 -96.2136 66° East 425 489 39,000  Level Minneapolis Center
Sat 10:19:23 PM 40.4778 -96.0714 66° East 425 489 39,000  Level Minneapolis Center
Sat 10:20:24 PM 40.5353 -95.9019 66° East 426 490 39,000  Level Minneapolis Center
Sat 10:21:24 PM 40.5819 -95.7617 66° East 423 487 39,000  Level Minneapolis Center
Sat 10:22:25 PM 40.6281 -95.6256 66° East 415 478 39,000  Level Minneapolis Center
Sat 10:23:26 PM 40.6758 -95.4806 66° East 427 491 39,000  Level Minneapolis Center
Sat 10:24:26 PM 40.7225 -95.3397 66° East 425 489 39,000  Level Minneapolis Center
Sat 10:25:27 PM 40.7686 -95.1997 66° East 421 484 39,000  Level Minneapolis Center
Sat 10:26:28 PM 40.8153 -95.0603 66° East 419 482 39,000  Level Minneapolis Center
Sat 10:27:28 PM 40.8603 -94.9219 67° East 414 476 39,000  Level Minneapolis Center
Sat 10:28:29 PM 40.9050 -94.7836 67° East 412 474 39,000  Level Minneapolis Center
Sat 10:29:30 PM 40.9486 -94.6478 67° East 406 467 39,000  Level Minneapolis Center
Sat 10:30:30 PM 40.9950 -94.5031 67° East 406 467 39,000  Level Minneapolis Center
Sat 10:31:31 PM 41.0383 -94.3644 67° East 408 470 39,000  Level Minneapolis Center
Sat 10:32:32 PM 41.0811 -94.2272 67° East 407 468 39,000  Level Minneapolis Center
Sat 10:33:32 PM 41.1233 -94.0908 68° East 404 465 39,000  Level Minneapolis Center
Sat 10:34:33 PM 41.1683 -93.9517 67° East 409 471 39,000  Level Minneapolis Center
Sat 10:35:34 PM 41.2036 -93.8408 67° East 409 471 39,000  Level Minneapolis Center
Sat 10:36:34 PM 41.2692 -93.6825 61° Northeast 409 471 39,000  Level Minneapolis Center
Sat 10:37:35 PM 41.3311 -93.5556 57° Northeast 412 474 39,000  Level Minneapolis Center
Sat 10:38:36 PM 41.3942 -93.4258 57° Northeast 416 479 39,000  Level Minneapolis Center
Sat 10:39:36 PM 41.4703 -93.2717 57° Northeast 416 479 39,000  Level Minneapolis Center
Sat 10:40:37 PM 41.5261 -93.1411 60° Northeast 412 474 39,000  Level Minneapolis Center
Sat 10:41:38 PM 41.5647 -92.9947 71° East 418 481 39,000  Level Minneapolis Center
Sat 10:42:38 PM 41.6042 -92.8511 70° East 416 479 39,000  Level Minneapolis Center
Sat 10:43:39 PM 41.6442 -92.7072 70° East 416 479 39,000  Level Minneapolis Center
Sat 10:44:59 PM 41.6911 -92.5322 70° East 418 481 39,000  Level Chicago Center
Sat 10:45:59 PM 41.7375 -92.3600 70° East 416 479 39,000  Level Chicago Center
Sat 10:47:00 PM 41.7767 -92.2156 70° East 416 479 39,000  Level Chicago Center
Sat 10:48:00 PM 41.8147 -92.0719 70° East 417 480 39,000  Level Chicago Center
Sat 10:49:01 PM 41.8531 -91.9261 71° East 418 481 39,000  Level Chicago Center
Sat 10:50:01 PM 41.8917 -91.7825 70° East 417 480 39,000  Level Chicago Center
Sat 10:51:01 PM 41.9294 -91.6386 71° East 415 478 39,000  Level Chicago Center
Sat 10:52:02 PM 41.9683 -91.4922 70° East 419 482 39,000  Level Chicago Center
Sat 10:53:02 PM 42.0056 -91.3461 71° East 420 483 39,000  Level Chicago Center
Sat 10:54:03 PM 42.0433 -91.2000 71° East 420 483 39,000  Level Chicago Center
Sat 10:55:03 PM 42.0819 -91.0514 71° East 424 488 39,000  Level Chicago Center
Sat 10:56:04 PM 42.1181 -90.9047 72° East 422 486 39,000  Level Chicago Center
Sat 10:57:04 PM 42.1633 -90.7278 71° East 423 487 39,000  Level Chicago Center
Sat 10:58:05 PM 42.2000 -90.5797 71° East 423 487 39,000  Level Chicago Center
Sat 10:59:05 PM 42.2381 -90.4294 71° East 425 489 39,000  Level Chicago Center
Sat 11:00:06 PM 42.2747 -90.2794 72° East 427 491 39,000 -149 Level Chicago Center
Sat 11:01:06 PM 42.3117 -90.1286 72° East 427 491 38,700 -942 Descending Chicago Center
Sat 11:02:07 PM 42.3475 -89.9811 72° East 422 486 37,100 -1,934 Descending Chicago Center
Sat 11:03:07 PM 42.3828 -89.8344 72° East 416 479 34,800 -2,777 Descending Chicago Center
Sat 11:04:08 PM 42.4197 -89.6831 72° East 422 486 31,500 -2,748 Descending Chicago Center
Sat 11:06:00 PM 42.4870 -89.3995 74° East  Level FlightAware Approximate
Sat 11:08:52 PM 42.5833 -88.9500 53° Northeast 422 486 19,000  Level KMKE
Sat 11:09:40 PM 42.6167 -88.8333 69° East 389 448 16,900 -2,611 Descending KMKE
Sat 11:10:40 PM 42.6333 -88.7000 80° East 375 432 14,300 -2,550 Descending KMKE
Sat 11:11:40 PM 42.6667 -88.5667 71° East 357 411 11,800 -2,050 Descending KMKE
Sat 11:12:40 PM 42.6833 -88.4333 80° East 328 377 10,200 -1,200 Descending KMKE
Sat 11:13:00 PM 42.6977 -88.3113 75° East  Level FlightAware Approximate
Sat 11:13:40 PM 42.7000 -88.3333 77° East 270 311 9,400  Level KMKE
Sat 11:14:00 PM 42.7656 -88.1798 53° Northeast  Level FlightAware Approximate
Sat 11:14:40 PM 42.7833 -88.3167 North 281 323 7,800  Level KMKE
Sat 11:15:40 PM 42.8500 -88.2833 20° North 275 316 5,800 -1,750 Descending KMKE
Sat 11:16:40 PM 42.8667 -88.1833 77° East 264 304 4,300 -1,200 Descending KMKE
Sat 11:17:40 PM 42.9000 -88.1000 61° Northeast 251 289 3,400 -947 Descending KMKE
Sat 11:18:34 PM 42.9167 -88.0333 71° East 203 234 2,500 -895 Descending KMKE
Sat 11:19:34 PM 42.9167 -87.9833 90° East 137 158 1,700 -750 Descending KMKE
Sat 11:20:34 PM 42.9333 -87.9333 66° East 118 136 1,000 -700 Descending KMKE
Sat 11:22:00 PM 42.9333 -87.8833 56° Northeast  Level FlightAware Approximate
Sat 11:29:00 PM 42.9469 -87.8971 56° Northeast  Level Estimated
Sat 11:30:00 PM 42.9469 -87.8971 56° Northeast  Level Estimated
Sat 11:31:00 PM 42.9469 -87.8971 56° Northeast  Level Estimated
Sat 11:32:00 PM 42.9469 -87.8971 56° Northeast  Level Estimated
Sat 11:33:00 PM 42.9469 -87.8971 56° Northeast  Level Estimated
Sat 11:34:00 PM 42.9469 -87.8971 56° Northeast  Level Estimated
Sat 11:35:00 PM 42.9469 -87.8971 56° Northeast  Level Estimated
Sat 11:36:00 PM 42.9469 -87.8971 56° Northeast  Level Estimated
Sat 11:37:00 PM 42.9469 -87.8971 56° Northeast  Level Estimated

Login

Don't have an account? Register now (free) for customized features, flight alerts, and more!